createdAt,value
2019-01-18T00:01:56.647Z,2.10
2019-01-18T00:12:22.537Z,1.90
2019-01-18T00:17:29.053Z,2.10
2019-01-18T00:22:33.123Z,2.40
2019-01-18T00:27:37.041Z,2.00
2019-01-18T00:32:40.627Z,2.53
2019-01-18T00:37:44.298Z,2.10
2019-01-18T00:42:48.248Z,2.53
2019-01-18T00:47:55.105Z,2.10
2019-01-18T00:53:01.427Z,2.20
2019-01-18T00:58:05.170Z,2.87
2019-01-18T01:03:17.628Z,2.60
2019-01-18T01:08:21.226Z,2.30
2019-01-18T01:13:24.902Z,1.87
2019-01-18T01:18:30.306Z,2.57
2019-01-18T01:23:33.881Z,2.30
2019-01-18T01:28:40.469Z,2.57
2019-01-18T01:33:44.142Z,2.70
2019-01-18T01:38:50.469Z,2.63
2019-01-18T01:43:57.422Z,1.90
2019-01-18T01:49:04.216Z,2.50
2019-01-18T01:54:10.486Z,2.10
2019-01-18T01:59:22.917Z,2.50
2019-01-18T02:04:31.029Z,2.10
2019-01-18T02:09:34.634Z,2.90
2019-01-18T02:14:43.869Z,2.93
2019-01-18T02:19:56.690Z,6.70
2019-01-18T02:25:01.927Z,2.60
2019-01-18T02:30:23.207Z,3.20
2019-01-18T02:35:32.758Z,3.33
2019-01-18T02:40:36.356Z,4.80
2019-01-18T02:45:47.167Z,3.60
2019-01-18T02:56:10.496Z,3.30
2019-01-18T03:01:28.390Z,3.23
2019-01-18T03:06:25.618Z,3.90
2019-01-18T03:11:29.194Z,3.40
2019-01-18T03:16:32.797Z,3.00
2019-01-18T03:21:38.929Z,2.80
2019-01-18T03:26:46.322Z,10.83
2019-01-18T03:31:51.558Z,11.10
2019-01-18T03:36:56.731Z,14.03
2019-01-18T03:42:06.975Z,13.10
2019-01-18T03:47:10.589Z,25.23
2019-01-18T03:52:14.198Z,15.10
2019-01-18T03:57:17.808Z,15.37
2019-01-18T04:02:21.751Z,7.93
2019-01-18T04:07:25.357Z,3.77
2019-01-18T04:12:30.823Z,4.90
2019-01-18T04:17:36.157Z,4.93
2019-01-18T04:22:39.763Z,5.80
2019-01-18T04:27:43.558Z,3.27
2019-01-18T04:32:47.540Z,4.10
2019-01-18T04:43:03.040Z,4.47
2019-01-18T04:48:06.766Z,3.50
2019-01-18T04:53:10.365Z,3.90
2019-01-18T04:58:13.976Z,3.90
2019-01-18T05:03:17.940Z,4.57
2019-01-18T05:08:24.832Z,3.50
2019-01-18T05:13:28.435Z,3.70
2019-01-18T05:18:32.103Z,3.67
2019-01-18T05:23:35.710Z,4.47
2019-01-18T05:28:39.313Z,3.27
2019-01-18T05:33:44.905Z,4.00
2019-01-18T05:38:48.522Z,4.13
2019-01-18T05:43:53.918Z,3.83
2019-01-18T05:48:57.534Z,4.67
2019-01-18T05:54:02.890Z,9.40
2019-01-18T05:59:06.463Z,5.73
2019-01-18T06:04:10.325Z,5.23
2019-01-18T06:09:13.933Z,9.20
2019-01-18T06:14:17.526Z,6.33
2019-01-18T06:19:21.140Z,9.63
2019-01-18T06:24:25.834Z,6.23
2019-01-18T06:29:31.392Z,9.80
2019-01-18T06:34:34.773Z,8.40
2019-01-18T06:39:38.365Z,6.77
2019-01-18T06:44:42.185Z,7.90
2019-01-18T06:49:45.783Z,5.73
2019-01-18T06:54:49.449Z,9.77
2019-01-18T06:59:53.376Z,8.00
2019-01-18T07:04:56.981Z,6.10
2019-01-18T07:10:00.592Z,14.37
2019-01-18T07:15:07.007Z,10.93
2019-01-18T07:20:15.948Z,8.37
2019-01-18T07:25:24.617Z,7.67
2019-01-18T07:30:33.826Z,8.10
2019-01-18T07:35:37.430Z,7.70
2019-01-18T07:40:41.302Z,17.37
2019-01-18T07:45:44.921Z,12.70
2019-01-18T07:50:48.631Z,16.27
2019-01-18T07:55:52.237Z,11.93
2019-01-18T08:00:55.854Z,16.40
2019-01-18T08:05:59.466Z,12.40
2019-01-18T08:11:03.071Z,14.13
2019-01-18T08:16:06.677Z,12.60
2019-01-18T08:21:10.458Z,12.50
2019-01-18T08:26:14.070Z,15.80
2019-01-18T08:36:38.970Z,11.40
2019-01-18T08:41:45.700Z,11.60
2019-01-18T08:46:49.299Z,10.70
2019-01-18T08:51:52.897Z,16.30
2019-01-18T08:56:58.170Z,11.37
2019-01-18T09:02:03.457Z,9.90
2019-01-18T09:07:07.047Z,13.00
2019-01-18T09:12:15.239Z,10.83
2019-01-18T09:17:18.833Z,9.57
2019-01-18T09:22:22.453Z,10.43
2019-01-18T09:27:27.685Z,8.13
2019-01-18T09:32:32.070Z,8.93
2019-01-18T09:37:35.698Z,10.83
2019-01-18T09:42:39.709Z,14.67
2019-01-18T09:47:45.631Z,11.67
2019-01-18T09:52:49.345Z,10.93
2019-01-18T09:57:57.361Z,11.33
2019-01-18T10:03:04.715Z,9.23
2019-01-18T10:08:09.932Z,12.47
2019-01-18T10:13:13.626Z,11.00
2019-01-18T10:18:17.989Z,9.07
2019-01-18T10:23:25.864Z,8.70
2019-01-18T10:28:29.477Z,7.57
2019-01-18T10:33:41.079Z,8.27
2019-01-18T10:38:48.878Z,8.13
2019-01-18T10:43:58.636Z,7.60
2019-01-18T10:49:05.138Z,10.20
2019-01-18T10:54:08.822Z,7.23
2019-01-18T10:59:12.458Z,8.60
2019-01-18T11:04:16.209Z,5.00
2019-01-18T11:09:22.252Z,8.80
2019-01-18T11:14:34.162Z,7.20
2019-01-18T11:19:40.325Z,4.37
2019-01-18T11:24:43.937Z,7.20
2019-01-18T11:29:47.544Z,7.13
2019-01-18T11:34:51.158Z,6.23
2019-01-18T11:39:54.774Z,7.63
2019-01-18T11:45:00.171Z,4.83
2019-01-18T11:50:06.071Z,8.67
2019-01-18T11:55:09.715Z,3.83
2019-01-18T12:00:19.027Z,3.83
2019-01-18T12:05:24.739Z,4.03
2019-01-18T12:10:33.413Z,5.40
2019-01-18T12:15:37.004Z,9.13
2019-01-18T12:20:40.899Z,4.20
2019-01-18T12:25:46.049Z,4.67
2019-01-18T12:30:51.697Z,4.20
2019-01-18T12:36:06.870Z,3.90
2019-01-18T12:41:11.540Z,3.10
2019-01-18T12:46:16.441Z,3.50
2019-01-18T12:51:19.701Z,4.97
2019-01-18T12:56:27.603Z,3.03
2019-01-18T13:01:36.861Z,7.53
2019-01-18T13:06:43.218Z,3.47
2019-01-18T13:11:51.079Z,5.23
2019-01-18T13:17:03.932Z,3.53
2019-01-18T13:22:12.107Z,4.43
2019-01-18T13:27:18.306Z,4.07
2019-01-18T13:32:24.778Z,3.97
2019-01-18T13:37:28.383Z,2.90
2019-01-18T13:42:31.997Z,3.50
2019-01-18T13:47:39.258Z,5.17
2019-01-18T13:52:42.993Z,3.77
2019-01-18T13:57:47.143Z,3.37
2019-01-18T14:02:50.772Z,4.97
2019-01-18T14:07:59.394Z,3.90
2019-01-18T14:13:05.823Z,3.13
2019-01-18T14:18:13.390Z,2.57
2019-01-18T14:23:20.193Z,4.60
2019-01-18T14:28:23.792Z,6.23
2019-01-18T14:33:28.427Z,4.17
2019-01-18T14:38:33.692Z,4.30
2019-01-18T14:43:37.319Z,6.63
2019-01-18T14:48:40.926Z,6.60
2019-01-18T14:53:44.535Z,3.83
2019-01-18T14:58:48.673Z,4.20
2019-01-18T15:03:54.179Z,3.90
2019-01-18T15:08:57.690Z,8.87
2019-01-18T15:14:06.086Z,8.47
2019-01-18T15:19:14.155Z,10.90
2019-01-18T15:24:25.351Z,9.93
2019-01-18T15:29:30.862Z,6.23
2019-01-18T15:34:34.451Z,5.30
2019-01-18T15:39:39.737Z,5.73
2019-01-18T15:44:43.706Z,5.03
2019-01-18T15:49:47.304Z,5.47
2019-01-18T15:54:50.937Z,3.93
2019-01-18T15:59:54.771Z,7.67
2019-01-18T16:05:00.049Z,3.77
2019-01-18T16:10:14.736Z,6.07
2019-01-18T16:15:25.645Z,4.80
2019-01-18T16:20:31.366Z,3.97
2019-01-18T16:25:35.107Z,4.00
2019-01-18T16:30:38.783Z,5.13
2019-01-18T16:35:47.195Z,9.03
2019-01-18T16:40:50.821Z,5.27
2019-01-18T16:45:54.574Z,4.40
2019-01-18T16:50:58.274Z,4.60
2019-01-18T16:56:02.171Z,5.33
2019-01-18T17:01:05.772Z,6.50
2019-01-18T17:06:18.165Z,5.07
2019-01-18T17:11:23.450Z,7.17
2019-01-18T17:16:27.209Z,11.10
2019-01-18T17:21:37.066Z,5.83
2019-01-18T17:26:42.306Z,3.60
2019-01-18T17:31:48.954Z,5.13
2019-01-18T17:36:52.612Z,6.60
2019-01-18T17:42:04.858Z,8.37
2019-01-18T17:47:46.314Z,5.80
2019-01-18T17:53:15.677Z,11.43
2019-01-18T17:58:48.016Z,10.57
2019-01-18T18:04:00.418Z,6.53
2019-01-18T18:09:09.958Z,7.73
2019-01-18T18:14:22.633Z,7.53
2019-01-18T18:20:03.842Z,7.10
2019-01-18T18:25:42.780Z,7.40
2019-01-18T18:31:11.620Z,11.23
2019-01-18T18:36:36.539Z,7.47
2019-01-18T18:41:51.510Z,8.07
2019-01-18T18:47:24.026Z,7.63
2019-01-18T18:52:30.691Z,9.77
2019-01-18T18:57:55.310Z,7.07
2019-01-18T19:03:19.302Z,9.43
2019-01-18T19:08:41.214Z,11.50
2019-01-18T19:14:06.154Z,8.67
2019-01-18T19:19:35.497Z,8.10
2019-01-18T19:24:49.837Z,7.33
2019-01-18T19:30:16.715Z,8.30
2019-01-18T19:35:41.533Z,9.13
2019-01-18T19:41:17.230Z,8.43
2019-01-18T19:46:32.846Z,10.83
2019-01-18T19:51:59.747Z,9.27
2019-01-18T19:57:26.056Z,10.53
2019-01-18T20:02:58.222Z,9.50
2019-01-18T20:08:38.374Z,11.40
2019-01-18T20:13:55.554Z,9.43
2019-01-18T20:19:22.049Z,10.63
2019-01-18T20:24:52.712Z,11.37
2019-01-18T20:30:26.499Z,11.40
2019-01-18T20:35:59.215Z,12.47
2019-01-18T20:41:39.341Z,11.37
2019-01-18T20:46:49.062Z,11.27
2019-01-18T20:51:55.726Z,9.40
2019-01-18T20:57:05.030Z,11.00
2019-01-18T21:02:11.692Z,8.73
2019-01-18T21:07:24.291Z,11.30
2019-01-18T21:12:44.787Z,13.17
2019-01-18T21:18:13.681Z,6.57
2019-01-18T21:23:40.688Z,11.10
2019-01-18T21:29:02.362Z,10.20
2019-01-18T21:34:18.890Z,12.60
2019-01-18T21:39:49.955Z,10.10
2019-01-18T21:45:02.962Z,10.60
2019-01-18T21:50:18.506Z,11.40
2019-01-18T21:55:25.562Z,10.57
2019-01-18T22:00:38.403Z,23.23
2019-01-18T22:06:03.039Z,9.40
2019-01-18T22:11:15.928Z,11.83
2019-01-18T22:16:38.498Z,9.83
2019-01-18T22:21:51.513Z,8.00
2019-01-18T22:27:23.258Z,10.30
2019-01-18T22:32:41.754Z,10.77
2019-01-18T22:38:09.444Z,13.00
2019-01-18T22:43:34.246Z,10.40
2019-01-18T22:48:43.597Z,9.27
2019-01-18T22:53:59.515Z,13.57
2019-01-18T22:59:25.741Z,12.40
2019-01-18T23:04:32.415Z,14.03
2019-01-18T23:10:01.701Z,11.70
2019-01-18T23:15:41.439Z,15.77
2019-01-18T23:20:59.963Z,11.03
2019-01-18T23:26:38.801Z,10.80
2019-01-18T23:32:03.351Z,17.00
2019-01-18T23:37:21.781Z,12.87
2019-01-18T23:42:37.419Z,13.53
2019-01-18T23:47:56.003Z,14.20
2019-01-18T23:53:08.538Z,14.80
2019-01-18T23:58:27.623Z,14.07
